createdAt,value
2019-04-23T00:04:16.881Z,10.33
2019-04-23T00:07:15.458Z,10.17
2019-04-23T00:09:26.259Z,9.13
2019-04-23T00:12:11.351Z,10.33
2019-04-23T00:15:03.383Z,8.67
2019-04-23T00:17:26.809Z,11.50
2019-04-23T00:19:56.064Z,9.80
2019-04-23T00:22:43.527Z,9.97
2019-04-23T00:28:28.047Z,11.20
2019-04-23T00:33:34.219Z,10.87
2019-04-23T00:36:10.682Z,12.77
2019-04-23T00:38:45.569Z,10.27
2019-04-23T00:41:18.079Z,12.27
2019-04-23T00:43:48.736Z,9.50
2019-04-23T00:46:22.989Z,8.70
2019-04-23T00:49:05.326Z,10.23
2019-04-23T00:51:54.822Z,12.93
2019-04-23T00:54:28.809Z,12.10
2019-04-23T00:56:54.478Z,13.00
2019-04-23T00:59:33.951Z,16.23
2019-04-23T01:02:08.769Z,18.57
2019-04-23T01:07:29.854Z,14.87
2019-04-23T01:10:14.003Z,16.60
2019-04-23T01:13:14.843Z,14.37
2019-04-23T01:15:53.997Z,15.60
2019-04-23T01:18:45.910Z,14.20
2019-04-23T01:20:58.140Z,15.17
2019-04-23T01:24:27.303Z,13.10
2019-04-23T01:27:35.389Z,14.10
2019-04-23T01:29:57.628Z,13.03
2019-04-23T01:32:32.066Z,13.97
2019-04-23T01:35:13.891Z,18.07
2019-04-23T01:37:36.709Z,17.70
2019-04-23T01:40:12.343Z,17.07
2019-04-23T01:42:44.150Z,14.57
2019-04-23T01:45:20.411Z,14.97
2019-04-23T01:50:20.485Z,14.13
2019-04-23T01:52:52.151Z,15.70
2019-04-23T01:55:26.292Z,13.00
2019-04-23T01:58:07.052Z,13.70
2019-04-23T02:00:28.692Z,12.43
2019-04-23T02:03:01.812Z,14.20
2019-04-23T02:08:03.977Z,11.23
2019-04-23T02:10:44.644Z,12.30
2019-04-23T02:13:11.355Z,13.63
2019-04-23T02:15:43.950Z,12.40
2019-04-23T02:18:17.439Z,14.53
2019-04-23T02:21:11.829Z,15.93
2019-04-23T02:24:06.722Z,13.77
2019-04-23T02:29:24.842Z,14.23
2019-04-23T02:37:28.625Z,13.43
2019-04-23T02:42:40.922Z,11.80
2019-04-23T02:45:07.124Z,11.37
2019-04-23T02:57:54.176Z,11.77
2019-04-23T03:00:28.923Z,13.53
2019-04-23T03:05:45.500Z,12.17
2019-04-23T03:10:51.291Z,10.63
2019-04-23T03:13:32.050Z,11.30
2019-04-23T03:16:21.848Z,14.50
2019-04-23T03:21:46.843Z,11.73
2019-04-23T03:24:34.658Z,11.53
2019-04-23T03:27:10.232Z,11.03
2019-04-23T03:37:23.291Z,13.50
2019-04-23T03:39:56.729Z,12.63
2019-04-23T03:42:17.136Z,12.17
2019-04-23T03:44:56.238Z,13.87
2019-04-23T03:47:24.923Z,9.27
2019-04-23T03:49:55.726Z,10.27
2019-04-23T03:52:32.314Z,11.83
2019-04-23T04:00:15.346Z,11.37
2019-04-23T04:05:20.563Z,9.37
2019-04-23T04:07:47.000Z,11.10
2019-04-23T04:10:18.121Z,10.60
2019-04-23T04:13:22.536Z,9.17
2019-04-23T04:15:48.924Z,10.03
2019-04-23T04:18:28.443Z,11.93
2019-04-23T04:25:49.947Z,11.93
2019-04-23T04:28:17.824Z,11.00
2019-04-23T04:41:25.488Z,12.50
2019-04-23T04:52:00.840Z,11.47
2019-04-23T04:54:22.441Z,11.73
2019-04-23T04:59:37.479Z,11.93
2019-04-23T05:10:28.845Z,13.87
2019-04-23T05:12:59.999Z,11.90
2019-04-23T05:15:22.076Z,15.87
2019-04-23T05:18:22.863Z,12.40
2019-04-23T05:21:01.914Z,12.03
2019-04-23T05:29:01.900Z,11.40
2019-04-23T05:36:35.919Z,11.53
2019-04-23T05:39:15.451Z,10.43
2019-04-23T05:41:41.532Z,12.17
2019-04-23T05:47:13.259Z,10.47
2019-04-23T05:49:24.800Z,9.87
2019-04-23T05:52:24.463Z,13.27
2019-04-23T05:55:10.875Z,15.10
2019-04-23T05:57:38.975Z,8.60
2019-04-23T10:25:56.348Z,14.83
2019-04-23T10:28:42.354Z,7.60
2019-04-23T10:31:12.705Z,8.30
2019-04-23T10:33:48.536Z,10.70
2019-04-23T10:36:21.931Z,7.40
2019-04-23T10:38:57.109Z,11.03
2019-04-23T10:41:30.997Z,10.93
2019-04-23T10:44:07.079Z,9.20
2019-04-23T10:47:12.249Z,7.03
2019-04-23T10:49:53.499Z,8.93
2019-04-23T10:52:30.587Z,7.80
2019-04-23T10:54:45.359Z,9.10
2019-04-23T11:00:01.551Z,7.87
2019-04-23T11:10:05.169Z,13.53
2019-04-23T11:12:50.750Z,11.20
2019-04-23T11:15:26.797Z,10.27
2019-04-23T11:20:36.287Z,11.37
2019-04-23T11:22:48.125Z,11.07
2019-04-23T11:25:33.068Z,11.80
2019-04-23T11:28:03.098Z,10.77
2019-04-23T11:33:25.631Z,12.13
2019-04-23T11:38:48.772Z,10.90
2019-04-23T11:40:59.998Z,12.50
2019-04-23T11:43:32.964Z,12.20
2019-04-23T11:46:25.767Z,10.83
2019-04-23T11:49:19.654Z,11.40
2019-04-23T11:54:03.479Z,11.23
2019-04-23T11:57:04.117Z,9.30
2019-04-23T11:59:10.206Z,10.53
2019-04-23T12:07:22.938Z,10.37
2019-04-23T12:10:09.139Z,12.03
2019-04-23T12:12:29.763Z,14.43
2019-04-23T12:15:13.516Z,11.53
2019-04-23T12:20:25.570Z,12.17
2019-04-23T12:23:12.217Z,12.73
2019-04-23T12:25:47.479Z,15.97
2019-04-23T12:28:14.108Z,17.30
2019-04-23T12:33:20.656Z,17.50
2019-04-23T12:35:40.695Z,16.77
2019-04-23T12:38:22.121Z,16.73
2019-04-23T12:40:46.027Z,19.10
2019-04-23T12:43:19.297Z,21.20
2019-04-23T12:45:46.899Z,18.23
2019-04-23T12:55:57.919Z,18.93
2019-04-23T12:58:29.450Z,19.70
2019-04-23T13:01:22.616Z,19.27
2019-04-23T13:03:50.467Z,19.83
2019-04-23T13:06:39.184Z,22.70
2019-04-23T13:09:18.592Z,22.70
2019-04-23T13:11:40.784Z,21.33
2019-04-23T13:14:20.352Z,24.27
2019-04-23T13:16:44.674Z,18.50
2019-04-23T13:19:25.679Z,21.50
2019-04-23T13:22:04.369Z,18.17
2019-04-23T13:24:33.055Z,19.20
2019-04-23T13:27:15.807Z,18.90
2019-04-23T13:29:54.085Z,20.37
2019-04-23T13:32:20.467Z,19.40
2019-04-23T13:37:20.182Z,19.23
2019-04-23T13:42:37.946Z,21.37
2019-04-23T13:44:54.755Z,20.10
2019-04-23T13:47:41.396Z,21.57
2019-04-23T13:50:33.242Z,20.67
2019-04-23T13:53:22.259Z,19.73
2019-04-23T13:55:21.750Z,19.53
2019-04-23T14:02:56.021Z,16.73
2019-04-23T14:06:03.986Z,18.20
2019-04-23T14:11:19.819Z,16.00
2019-04-23T14:19:04.655Z,14.97
2019-04-23T14:21:51.732Z,14.60
2019-04-23T14:24:19.888Z,13.17
2019-04-23T14:29:19.023Z,14.20
2019-04-23T14:31:54.691Z,12.90
2019-04-23T14:34:19.612Z,11.97
2019-04-23T14:37:01.006Z,12.50
2019-04-23T14:39:25.097Z,12.23
2019-04-23T14:42:12.504Z,11.50
2019-04-23T14:44:36.590Z,14.27
2019-04-23T14:53:02.050Z,13.50
2019-04-23T14:58:36.869Z,13.83
2019-04-23T15:01:07.619Z,16.30
2019-04-23T15:03:33.243Z,13.90
2019-04-23T15:06:12.172Z,14.03
2019-04-23T15:12:11.925Z,14.17
2019-04-23T15:14:46.010Z,13.87
2019-04-23T15:17:26.905Z,13.10
2019-04-23T15:20:17.776Z,13.87
2019-04-23T15:22:53.246Z,12.83
2019-04-23T15:25:30.285Z,12.10
2019-04-23T15:28:06.119Z,13.13
2019-04-23T15:30:17.759Z,13.23
2019-04-23T15:33:03.880Z,14.17
2019-04-23T15:35:31.568Z,13.23
2019-04-23T15:38:19.045Z,13.70
2019-04-23T15:45:42.238Z,13.77
2019-04-23T15:48:13.769Z,13.13
2019-04-23T15:50:37.642Z,13.83
2019-04-23T15:53:08.057Z,13.17
2019-04-23T15:55:51.248Z,12.33
2019-04-23T15:58:17.433Z,11.00
2019-04-23T16:01:03.604Z,12.63
2019-04-23T16:02:55.724Z,10.57
2019-04-23T16:05:25.848Z,12.17
2019-04-23T16:08:41.493Z,11.90
2019-04-23T16:11:15.686Z,12.47
2019-04-23T16:13:37.348Z,9.23
2019-04-23T16:16:06.157Z,10.63
2019-04-23T16:19:11.774Z,8.90
2019-04-23T16:22:01.576Z,9.17
2019-04-23T16:24:48.810Z,9.30
2019-04-23T16:32:52.350Z,10.60
2019-04-23T16:40:54.793Z,10.20
2019-04-23T16:46:33.385Z,8.47
2019-04-23T16:49:13.124Z,8.13
2019-04-23T16:51:59.755Z,9.63
2019-04-23T17:02:54.712Z,11.33
2019-04-23T17:05:24.838Z,11.43
2019-04-23T17:08:30.910Z,11.70
2019-04-23T17:10:38.681Z,13.17
2019-04-23T17:13:14.329Z,12.20
2019-04-23T17:16:00.247Z,12.50
2019-04-23T17:18:31.901Z,13.23
2019-04-23T17:21:23.291Z,14.73
2019-04-23T17:24:09.921Z,41.20
2019-04-23T17:26:35.502Z,93.63
2019-04-23T17:29:15.185Z,99.70
2019-04-23T17:34:27.332Z,68.00
2019-04-23T17:37:00.658Z,62.60
2019-04-23T17:39:59.003Z,49.93
2019-04-23T17:42:40.144Z,43.40
2019-04-23T17:45:30.460Z,38.13
2019-04-23T17:53:22.242Z,35.63
2019-04-23T17:56:05.721Z,33.00
2019-04-23T17:58:23.322Z,32.50
2019-04-23T18:01:17.291Z,30.47
2019-04-23T18:03:49.233Z,31.67
2019-04-23T18:06:27.950Z,27.93
2019-04-23T18:11:26.843Z,27.10
2019-04-23T18:16:48.114Z,29.10
2019-04-23T18:19:22.835Z,23.77
2019-04-23T18:22:20.262Z,26.17
2019-04-23T18:27:46.982Z,24.83
2019-04-23T18:31:16.681Z,23.93
2019-04-23T18:36:45.679Z,21.63
2019-04-23T18:39:23.914Z,24.60
2019-04-23T18:41:59.963Z,25.60
2019-04-23T18:44:32.530Z,29.43
2019-04-23T18:47:00.333Z,27.90
2019-04-23T18:49:35.534Z,25.63
2019-04-23T18:51:59.428Z,24.17
2019-04-23T18:54:34.704Z,27.40
2019-04-23T19:10:57.847Z,25.63
2019-04-23T19:15:58.047Z,23.23
2019-04-23T19:18:41.621Z,29.10
2019-04-23T19:21:20.045Z,25.07
2019-04-23T19:23:47.243Z,22.50
2019-04-23T19:26:40.914Z,24.07
2019-04-23T19:29:36.991Z,20.40
2019-04-23T19:31:33.860Z,20.33
2019-04-23T19:34:24.612Z,19.93
2019-04-23T19:39:32.109Z,18.77
2019-04-23T19:42:06.736Z,24.10
2019-04-23T19:44:42.697Z,20.37
2019-04-23T19:49:37.022Z,19.47
2019-04-23T19:52:18.960Z,20.77
2019-04-23T19:55:03.381Z,19.27
2019-04-23T19:59:55.954Z,18.60
2019-04-23T20:02:45.260Z,18.37
2019-04-23T20:04:55.451Z,18.27
2019-04-23T20:12:34.362Z,17.37
2019-04-23T20:15:14.105Z,16.93
2019-04-23T20:18:15.095Z,17.40
2019-04-23T20:20:33.537Z,17.93
2019-04-23T20:23:38.071Z,15.57
2019-04-23T20:28:44.238Z,15.17
2019-04-23T20:34:24.514Z,14.63
2019-04-23T20:36:42.519Z,17.00
2019-04-23T20:39:16.965Z,14.87
2019-04-23T20:44:34.107Z,18.07
2019-04-23T20:49:44.199Z,17.07
2019-04-23T20:52:13.749Z,18.83
2019-04-23T20:54:56.929Z,18.17
2019-04-23T20:57:45.243Z,16.70
2019-04-23T21:00:12.134Z,16.80
2019-04-23T21:05:37.262Z,19.20
2019-04-23T21:08:24.563Z,16.13
2019-04-23T21:11:04.822Z,18.80
2019-04-23T21:14:01.630Z,17.27
2019-04-23T21:16:15.276Z,20.23
2019-04-23T21:18:48.001Z,19.70
2019-04-23T21:21:27.983Z,22.07
2019-04-23T21:24:17.378Z,19.30
2019-04-23T21:26:50.233Z,19.53
2019-04-23T21:29:40.253Z,22.37
2019-04-23T21:32:08.863Z,18.07
2019-04-23T21:34:43.801Z,19.23
2019-04-23T21:37:32.197Z,18.93
2019-04-23T21:40:56.564Z,21.07
2019-04-23T21:43:41.938Z,18.13
2019-04-23T21:46:08.186Z,19.10
2019-04-23T21:48:53.187Z,19.93
2019-04-23T21:53:46.432Z,18.03
2019-04-23T21:56:15.477Z,18.10
2019-04-23T21:58:53.620Z,19.47
2019-04-23T22:01:36.623Z,17.07
2019-04-23T22:04:08.649Z,20.07
2019-04-23T22:06:31.543Z,16.63
2019-04-23T22:09:00.880Z,21.60
2019-04-23T22:14:07.346Z,19.50
2019-04-23T22:16:47.009Z,18.33
2019-04-23T22:24:07.057Z,17.70
2019-04-23T22:27:05.899Z,19.50
2019-04-23T22:29:41.610Z,17.37
2019-04-23T22:32:04.443Z,17.90
2019-04-23T22:34:55.907Z,17.43
2019-04-23T22:37:42.426Z,20.20
2019-04-23T22:40:11.998Z,17.17
2019-04-23T22:43:09.079Z,15.83
2019-04-23T22:45:31.220Z,17.83
2019-04-23T22:48:04.681Z,16.60
2019-04-23T22:53:44.406Z,18.67
2019-04-23T22:56:10.744Z,15.77
2019-04-23T22:59:02.183Z,15.97
2019-04-23T23:01:26.242Z,17.47
2019-04-23T23:04:13.454Z,16.03
2019-04-23T23:06:57.313Z,17.00
2019-04-23T23:12:10.939Z,16.73
2019-04-23T23:14:35.448Z,22.77
2019-04-23T23:17:16.817Z,15.97
2019-04-23T23:22:21.864Z,17.33
2019-04-23T23:25:06.688Z,16.40
2019-04-23T23:28:06.014Z,16.37
2019-04-23T23:30:38.859Z,16.10
2019-04-23T23:33:09.412Z,16.70
2019-04-23T23:35:38.787Z,15.97
2019-04-23T23:38:13.630Z,16.50
2019-04-23T23:40:53.689Z,20.60
2019-04-23T23:43:30.262Z,16.60
2019-04-23T23:46:13.699Z,19.30
2019-04-23T23:48:35.008Z,17.00
2019-04-23T23:52:02.966Z,19.70
2019-04-23T23:54:43.797Z,18.80
2019-04-23T23:57:41.541Z,21.13
